Latest Weather Observations for Cape Otway

IDV60801

Issued at 10:31 pm EST Friday 28 August 2015 (issued every 30 minutes, with the page automatically refreshed every 10 minutes)

About weather observations | Map of weather stations | Latest weather observations for VIC | Other Formats
Station Details ID: 090015 Name: CAPE OTWAY LIGHTHOUSE Lat: -38.86 Lon: 143.51 Height: 82.0 m
Data from the previous 72 hours. | See also: Recent months at Cape Otway
Date/Time
EST
Temp
°C
App
Temp
°C
Dew
Point
Rel
Hum
%
Delta-T
°C
Wind Press
QNH
hPa
Press
MSL
hPa
Rain
since 9 am
mm
Dir
 
Spd
km/h
Gust
km/h
Spd
kts
Gust
kts
28/10:30pm 8.4 3.3 0.6 58 3.1 SW 17 39 9 21 1028.3 - 2.6
28/10:00pm 8.3 3.2 1.0 60 2.9 WSW 17 43 9 23 1028.3 - 2.6
28/09:30pm 8.4 3.7 0.9 59 3.0 W 15 28 8 15 1028.1 - 2.6
28/09:00pm 8.6 4.0 1.3 60 3.0 WSW 15 32 8 17 1028.0 1028.2 2.6
28/08:30pm 8.8 4.3 2.2 63 2.8 WSW 15 28 8 15 1027.6 - 2.6
28/08:00pm 8.8 4.2 1.5 60 3.0 SW 15 28 8 15 1027.7 - 2.6
28/07:30pm 9.2 4.9 3.2 66 2.6 WSW 15 22 8 12 1027.5 - 2.6
28/07:00pm 8.7 4.1 1.6 61 2.9 WSW 15 24 8 13 1027.4 - 2.6
28/06:30pm 8.8 3.9 1.9 62 2.9 SW 17 26 9 14 1027.1 - 2.6
28/06:00pm 8.7 4.1 1.6 61 2.9 SW 15 20 8 11 1027.1 1027.3 2.6
28/05:30pm 9.0 4.8 1.9 61 3.0 WSW 13 19 7 10 1027.0 - 2.6
28/05:00pm 9.4 5.7 2.5 62 2.9 WSW 11 24 6 13 1026.7 - 2.6
28/04:30pm 9.8 5.8 2.9 62 3.0 WSW 13 20 7 11 1026.7 - 2.6
28/04:00pm 10.0 6.0 2.8 61 3.1 WSW 13 24 7 13 1026.6 - 2.6
28/03:30pm 10.3 6.9 4.0 65 2.8 WSW 11 20 6 11 1026.6 - 2.6
28/03:00pm 9.7 5.8 3.4 65 2.7 WSW 13 22 7 12 1026.6 1026.8 2.6
28/02:30pm 10.4 6.7 4.5 67 2.7 WSW 13 24 7 13 1026.6 - 2.6
28/02:00pm 9.9 6.1 3.9 66 2.6 SW 13 22 7 12 1026.6 - 2.6
28/01:30pm 10.1 6.2 5.3 72 2.2 WSW 15 22 8 12 1026.3 - 2.6
28/01:00pm 9.8 6.1 6.2 78 1.7 WSW 15 22 8 12 1026.5 - 2.6
28/12:30pm 10.2 7.6 7.8 85 1.2 W 11 22 6 12 1026.9 - 2.6
28/12:00pm 9.4 6.8 7.7 89 0.8 WSW 11 19 6 10 1027.0 1027.2 2.6
28/11:30am 9.4 6.8 7.8 90 0.8 SW 11 22 6 12 1027.2 - 2.0
28/11:00am 9.9 6.3 8.2 89 0.8 SSW 17 24 9 13 1027.2 - 0.8
28/10:30am 10.8 6.6 7.5 80 1.6 SSW 19 26 10 14 1026.9 - 0.2
28/10:00am 10.8 7.3 7.1 78 1.8 SSW 15 22 8 12 1027.1 - 0.2
28/09:30am 10.6 6.2 7.5 81 1.5 SW 20 33 11 18 1026.8 - 0.2
28/09:00am 10.4 6.0 6.5 77 1.8 SSW 19 32 10 17 1026.9 1027.1 2.2
28/08:30am 11.1 8.6 6.5 73 2.2 SSW 9 15 5 8 1026.6 - 2.0
28/08:00am 10.7 6.5 5.5 70 2.4 SSW 17 24 9 13 1026.3 - 2.0
28/07:30am 10.7 6.9 5.9 72 2.2 SW 15 26 8 14 1026.2 - 2.0
28/07:00am 10.6 5.8 5.6 71 2.3 SSW 20 30 11 16 1025.9 - 2.0
28/06:30am 10.7 5.5 5.3 69 2.5 SSW 22 37 12 20 1025.6 - 2.0
28/06:00am 10.6 4.4 4.5 66 2.7 SSW 26 35 14 19 1025.7 1025.9 2.0
28/05:30am 10.4 3.4 4.1 65 2.8 SSW 30 39 16 21 1025.4 - 2.0
28/05:00am 10.3 2.8 4.2 66 2.7 SSW 33 43 18 23 1025.2 - 2.0
28/04:30am 10.1 4.8 6.6 79 1.6 SSW 24 39 13 21 1025.0 - 2.0
28/04:00am 9.2 4.8 7.2 87 0.9 SSW 20 37 11 20 1025.0 - 2.0
28/03:30am 9.6 3.7 7.7 88 0.9 SSW 28 39 15 21 1025.0 - 1.8
28/03:00am 9.0 4.1 7.1 88 0.9 SSW 22 35 12 19 1025.3 1025.5 1.8
28/02:30am 10.0 5.7 7.1 82 1.4 SW 19 24 10 13 1025.2 - 1.4
28/02:00am 9.7 5.3 6.6 81 1.5 SSW 19 26 10 14 1025.5 - 1.4
28/01:30am 10.6 5.6 6.6 76 1.9 SSW 22 39 12 21 1025.4 - 1.4
28/01:00am 10.6 4.0 6.0 73 2.1 SSW 30 39 16 21 1025.3 - 1.4
28/12:30am 10.4 5.8 6.4 76 1.9 SSW 20 30 11 16 1025.1 - 1.4
28/12:00am 10.5 5.0 5.9 73 2.1 SSW 24 37 13 20 1025.0 1025.1 1.4
 
Date/Time
EST
Temp
°C
App
Temp
°C
Dew
Point
Rel
Hum
%
Delta-T
°C
Wind Press
QNH
hPa
Press
MSL
hPa
Rain
since 9 am
mm
Dir
 
Spd
km/h
Gust
km/h
Spd
kts
Gust
kts
27/11:30pm 10.5 5.5 6.5 76 1.9 SW 22 30 12 16 1025.1 - 1.4
27/11:00pm 10.5 5.8 7.7 83 1.4 SW 22 32 12 17 1025.0 - 1.4
27/10:30pm 11.2 7.0 7.3 77 1.9 SSW 19 30 10 16 1025.0 - 1.2
27/10:00pm 11.0 7.0 6.7 75 2.0 SSW 17 24 9 13 1025.2 - 1.2
27/09:30pm 11.0 7.8 6.7 75 2.0 SW 13 20 7 11 1025.1 - 1.2
27/09:00pm 11.1 7.5 6.8 75 2.0 SW 15 24 8 13 1024.9 1025.0 1.2
27/08:30pm 11.1 8.0 7.4 78 1.8 WSW 13 20 7 11 1024.6 - 1.2
27/08:00pm 11.0 7.5 7.3 78 1.8 WSW 15 24 8 13 1024.2 - 1.2
27/07:30pm 10.9 7.2 8.1 83 1.4 SW 17 24 9 13 1023.8 - 1.2
27/07:00pm 11.3 8.3 9.2 87 1.1 SW 15 20 8 11 1023.6 - 1.2
27/06:30pm 11.1 8.5 9.4 89 0.9 WSW 13 20 7 11 1023.1 - 1.2
27/06:00pm 11.2 8.3 9.8 91 0.7 WSW 15 26 8 14 1022.8 1022.9 1.2
27/05:30pm 11.1 8.6 9.7 91 0.7 SSW 13 24 7 13 1022.4 - 1.2
27/05:00pm 11.6 9.5 9.9 89 0.9 SW 11 22 6 12 1022.0 - 0.6
27/04:30pm 12.0 9.6 9.9 87 1.1 S 13 26 7 14 1021.5 - 0.2
27/04:00pm 12.4 10.0 10.1 86 1.2 SSW 13 17 7 9 1021.4 - 0.0
27/03:30pm 12.5 9.7 10.0 85 1.3 SSW 15 22 8 12 1021.4 - 0.0
27/03:00pm 12.6 9.4 9.8 83 1.4 SSW 17 20 9 11 1021.2 1021.3 0.0
27/02:30pm 12.3 9.4 9.7 84 1.3 SSW 15 20 8 11 1021.2 - 0.0
27/02:00pm 12.6 9.7 9.6 82 1.5 SW 15 19 8 10 1021.4 - 0.0
27/01:30pm 13.7 11.1 10.7 82 1.6 WSW 15 19 8 10 1021.5 - 0.0
27/01:00pm 12.9 9.8 10.4 85 1.3 WSW 17 22 9 12 1021.7 - 0.0
27/12:30pm 12.5 9.8 10.2 86 1.2 W 15 19 8 10 1021.8 - 0.0
27/12:00pm 13.1 10.5 10.6 85 1.3 WNW 15 20 8 11 1022.0 1022.1 0.0
27/11:30am 12.5 10.1 9.9 84 1.3 WNW 13 20 7 11 1022.4 - 0.0
27/11:00am 12.7 9.8 9.7 82 1.5 WNW 15 22 8 12 1022.3 - 0.0
27/10:30am 12.7 10.5 9.3 80 1.7 WNW 11 19 6 10 1022.3 - 0.0
27/10:00am 12.7 10.5 9.3 80 1.7 WNW 11 17 6 9 1022.3 - 0.0
27/09:30am 12.3 10.4 9.0 80 1.7 WNW 9 13 5 7 1022.4 - 0.0
27/09:00am 11.8 9.4 8.8 82 1.5 WNW 11 15 6 8 1022.3 1022.4 0.0
27/08:30am 11.7 9.5 9.4 86 1.2 WNW 11 15 6 8 1022.4 - 0.0
27/08:00am 10.8 8.5 9.1 89 0.8 NW 11 13 6 7 1022.2 - 0.0
27/07:30am 9.4 6.5 8.0 91 0.7 NNW 13 15 7 8 1021.8 - 0.0
27/07:00am 9.4 6.8 7.8 90 0.8 NW 11 13 6 7 1021.5 - 0.0
27/06:30am 10.2 7.8 8.5 89 0.8 WNW 11 17 6 9 1021.3 - 0.0
27/06:00am 10.2 7.8 8.6 90 0.8 WNW 11 15 6 8 1021.2 1021.3 0.0
27/05:30am 9.8 7.3 8.2 90 0.8 NW 11 15 6 8 1021.1 - 0.0
27/05:00am 9.3 6.7 7.6 89 0.8 NW 11 11 6 6 1021.0 - 0.0
27/04:30am 9.1 6.7 7.1 87 0.9 NW 9 9 5 5 1020.9 - 0.0
27/04:00am 9.1 7.1 6.9 86 1.0 NNW 7 9 4 5 1020.9 - 0.0
27/03:30am 9.5 7.1 6.9 84 1.2 NW 9 11 5 6 1021.1 - 0.0
27/03:00am 9.7 6.9 7.0 83 1.3 NNW 11 11 6 6 1021.3 1021.4 0.0
27/02:30am 10.3 7.6 7.2 81 1.5 NW 11 13 6 7 1021.5 - 0.0
27/02:00am 9.8 7.1 7.2 84 1.2 NNW 11 13 6 7 1021.8 - 0.0
27/01:30am 9.6 6.5 7.4 86 1.0 N 13 13 7 7 1022.0 - 0.0
27/01:00am 9.7 7.4 7.6 87 1.0 NNW 9 11 5 6 1022.3 - 0.0
27/12:30am 10.0 7.9 8.3 89 0.8 NNE 9 11 5 6 1022.5 - 0.0
27/12:00am 10.2 9.5 8.5 89 0.8 NNE 2 7 1 4 1022.6 1022.7 0.0
 
Date/Time
EST
Temp
°C
App
Temp
°C
Dew
Point
Rel
Hum
%
Delta-T
°C
Wind Press
QNH
hPa
Press
MSL
hPa
Rain
since 9 am
mm
Dir
 
Spd
km/h
Gust
km/h
Spd
kts
Gust
kts
26/11:30pm 10.6 8.3 8.9 89 0.8 NE 11 13 6 7 1022.7 - 0.0
26/11:00pm 10.8 8.2 9.2 90 0.8 NE 13 15 7 8 1023.0 - 0.0
26/10:30pm 10.9 8.3 9.2 89 0.9 NE 13 15 7 8 1023.3 - 0.0
26/10:00pm 11.0 9.2 9.3 89 0.9 E 9 13 5 7 1023.4 - 0.0
26/09:30pm 11.1 8.5 9.4 89 0.9 ENE 13 15 7 8 1023.5 - 0.0
26/09:00pm 11.3 8.7 9.4 88 1.0 ENE 13 19 7 10 1023.5 1023.6 0.0
26/08:30pm 11.5 8.6 9.6 88 1.0 ENE 15 22 8 12 1023.6 - 0.0
26/08:00pm 11.6 8.7 9.5 87 1.1 ENE 15 24 8 13 1023.6 - 0.0
26/07:30pm 11.7 8.4 9.4 86 1.2 ENE 17 26 9 14 1023.5 - 0.0
26/07:00pm 11.7 7.8 9.3 85 1.2 E 20 28 11 15 1023.6 - 0.0
26/06:30pm 11.7 8.0 9.3 85 1.2 E 19 24 10 13 1023.5 - 0.0
26/06:00pm 11.8 8.8 9.2 84 1.3 E 15 20 8 11 1023.5 1023.6 0.0
26/05:30pm 12.0 8.9 9.0 82 1.5 ENE 15 22 8 12 1023.4 - 0.0
26/05:00pm 12.1 8.2 8.8 80 1.7 E 19 26 10 14 1023.2 - 0.0
26/04:30pm 12.3 7.9 9.0 80 1.7 E 22 32 12 17 1023.0 - 0.0
26/04:00pm 12.4 7.9 8.7 78 1.9 E 22 33 12 18 1023.0 - 0.0
26/03:30pm 12.4 7.1 8.5 77 1.9 E 26 43 14 23 1023.1 - 0.0
26/03:00pm 12.5 6.7 8.0 74 2.2 E 28 41 15 22 1023.3 1023.4 0.0
26/02:30pm 12.3 6.8 7.6 73 2.3 E 26 41 14 22 1023.4 - 0.0
26/02:00pm 12.7 7.3 7.8 72 2.4 E 26 44 14 24 1023.4 - 0.0
26/01:30pm 12.0 5.6 7.1 72 2.4 E 30 43 16 23 1024.0 - 0.0
26/01:00pm 11.8 5.3 6.7 71 2.4 E 30 46 16 25 1024.2 - 0.0
26/12:31pm 11.8 5.0 6.7 71 2.4 E 32 52 17 28 1024.5 - 0.0
26/12:30pm 11.9 5.1 6.8 71 2.4 E 32 48 17 26 1024.6 - 0.0
26/12:00pm 11.8 4.9 6.5 70 2.5 E 32 50 17 27 1025.2 1025.4 0.0
26/11:30am 11.9 5.0 6.6 70 2.5 E 32 46 17 25 1025.5 - 0.0
26/11:00am 11.9 5.1 6.8 71 2.4 E 32 50 17 27 1025.7 - 0.0
26/10:31am 11.8 4.8 6.7 71 2.4 E 33 54 18 29 1025.8 - 0.0
26/10:30am 11.9 4.9 6.8 71 2.4 E 33 48 18 26 1025.8 - 0.0
26/10:10am 11.9 5.1 7.0 72 2.4 E 32 50 17 27 1026.0 - 0.0
26/10:00am 11.8 5.0 6.9 72 2.3 E 32 46 17 25 1026.0 - 0.0
26/09:30am 11.7 4.7 6.8 72 2.3 E 33 50 18 27 1026.4 - 0.0
26/09:06am 11.6 5.2 6.9 73 2.2 E 30 48 16 26 1026.4 - 0.0
26/09:00am 11.7 4.9 7.0 73 2.2 E 32 48 17 26 1026.3 1026.5 0.0
26/08:41am 11.5 4.4 6.4 71 2.4 E 33 52 18 28 1026.2 - 0.0
26/08:30am 11.5 4.5 6.8 73 2.2 E 33 48 18 26 1026.3 - 0.0
26/08:00am 11.2 4.1 6.3 72 2.3 E 33 48 18 26 1026.0 - 0.0
26/07:45am 11.2 4.1 6.3 72 2.3 E 33 52 18 28 1026.0 - 0.0
26/07:30am 11.1 4.0 6.5 73 2.2 E 33 50 18 27 1026.0 - 0.0
26/07:00am 11.0 3.9 6.4 73 2.2 E 33 48 18 26 1025.8 - 0.0
26/06:38am 11.0 3.5 6.2 72 2.3 E 35 54 19 29 1025.6 - 0.0
26/06:30am 11.1 3.7 6.6 74 2.1 E 35 50 19 27 1025.6 - 0.0
26/06:27am 11.1 3.7 6.6 74 2.1 E 35 54 19 29 1025.6 - 0.0
26/06:00am 11.2 2.9 5.9 70 2.5 E 39 56 21 30 1025.6 1025.8 0.0
26/05:31am 11.2 3.6 5.7 69 2.6 E 35 54 19 29 1025.5 - 0.0
26/05:30am 11.2 3.2 5.9 70 2.5 E 37 54 20 29 1025.5 - 0.0
26/05:00am 11.1 4.6 6.3 72 2.3 E 30 48 16 26 1025.4 - 0.0
26/04:30am 11.1 5.0 6.6 74 2.1 E 28 46 15 25 1025.6 - 0.0
26/04:12am 11.1 5.0 6.6 74 2.1 E 28 50 15 27 1025.7 - 0.0
26/04:00am 11.1 5.4 6.6 74 2.1 E 26 39 14 21 1025.8 - 0.0
26/03:30am 10.9 5.7 7.2 78 1.8 E 24 44 13 24 1026.0 - 0.0
26/03:00am 11.1 6.2 8.3 83 1.4 E 24 46 13 25 1026.5 1026.7 0.0
26/02:30am 10.8 5.1 8.2 84 1.3 E 28 48 15 26 1026.9 - 0.0
26/02:00am 10.8 4.4 8.4 85 1.2 E 32 50 17 27 1027.1 - 0.0
26/01:30am 10.7 4.0 8.3 85 1.2 E 33 44 18 24 1027.5 - 0.0
26/01:00am 10.6 3.9 8.0 84 1.3 E 33 48 18 26 1027.7 - 0.0
26/12:30am 10.4 3.7 7.5 82 1.4 E 32 44 17 24 1027.9 - 0.0
26/12:00am 10.4 4.8 7.3 81 1.5 E 26 44 14 24 1028.3 1028.4 0.0
 
Date/Time
EST
Temp
°C
App
Temp
°C
Dew
Point
Rel
Hum
%
Delta-T
°C
Wind Press
QNH
hPa
Press
MSL
hPa
Rain
since 9 am
mm
Dir
 
Spd
km/h
Gust
km/h
Spd
kts
Gust
kts
25/11:30pm 10.3 3.9 6.8 79 1.7 E 30 43 16 23 1028.5 - 0.0
25/11:00pm 10.4 3.4 6.9 79 1.7 ESE 33 46 18 25 1028.5 - 0.0

Other Formats:

Comma delimited format used in spreadsheet applications
http://www.bom.gov.au/fwo/IDV60801/IDV60801.94842.axf

JavaScript Object Notation format (JSON) in row-major order
http://www.bom.gov.au/fwo/IDV60801/IDV60801.94842.json